Terminal Aerodrome Forecast
Issued by NWS

Home | Current Version | Previous Version | Text Only | Print | Product List | Glossary On
Versions: 1 2 3 4 5 6 7 8 9 10 11 12 13
000
FTUS43 KDTX 240905 AAA
TAFYIP
TAF AMD
KYIP 240905Z 2409/2506 16005KT P6SM -SHRA OVC040
      TEMPO 2409/2413 5SM -RA OVC025
     FM241300 12008KT 5SM -RA BR OVC030
     FM241700 11008KT 4SM -RA BR OVC015
     FM242200 10006KT 3SM -RA BR OVC008=

USA.gov is the U.S. government's official web portal to all federal, state and local government web resources and services.